Time;durP1;ratioP1;P1;durP2;ratioP2;P2;SDS_P1;SDS_P2;PMS_P1;PMS_P2;Temp;Humidity;BMP_temperature;BMP_pressure;BME280_temperature;BME280_humidity;BME280_pressure;Samples;Min_cycle;Max_cycle;Signal;HPM_P1;HPM_P2
2021/03/16 00:00:55;;;;;;;12.52;2.50;;;7.50;99.90;;;;;;5013856;28;20605;-78
2021/03/16 00:03:40;;;;;;;12.50;2.75;;;7.60;99.90;;;;;;5022574;28;20174;-79
2021/03/16 00:06:19;;;;;;;12.27;2.20;;;7.60;99.90;;;;;;4994805;28;20177;-79
2021/03/16 00:08:48;;;;;;;13.45;2.90;;;7.60;99.90;;;;;;5012478;28;20278;-79
2021/03/16 00:11:14;;;;;;;10.40;2.60;;;7.60;99.90;;;;;;5016626;28;20202;-79
2021/03/16 00:13:39;;;;;;;12.70;2.77;;;7.60;99.90;;;;;;5012219;28;20709;-78
2021/03/16 00:16:05;;;;;;;9.37;2.63;;;7.60;99.90;;;;;;5012166;28;21031;-78
2021/03/16 00:18:31;;;;;;;13.82;3.15;;;7.60;99.90;;;;;;5011969;28;20228;-79
2021/03/16 00:20:57;;;;;;;12.77;2.65;;;7.60;99.90;;;;;;5011804;28;20202;-79
2021/03/16 00:23:23;;;;;;;11.13;2.17;;;7.60;99.90;;;;;;4994612;28;20209;-79
2021/03/16 00:25:49;;;;;;;12.93;2.80;;;7.60;99.90;;;;;;5012167;28;20166;-79
2021/03/16 00:28:14;;;;;;;13.23;3.67;;;7.70;99.90;;;;;;5011409;28;20569;-79
2021/03/16 00:30:40;;;;;;;10.00;2.63;;;7.70;99.90;;;;;;4994540;28;20166;-79
2021/03/16 00:33:06;;;;;;;11.40;2.70;;;7.70;99.90;;;;;;4994638;28;20188;-78
2021/03/16 00:35:31;;;;;;;9.57;3.83;;;7.70;99.90;;;;;;4994371;28;20746;-79
2021/03/16 00:37:57;;;;;;;10.50;2.00;;;7.80;99.90;;;;;;5013610;28;21030;-79
2021/03/16 00:40:23;;;;;;;10.87;3.20;;;7.80;99.90;;;;;;4998239;28;20198;-78
2021/03/16 00:42:49;;;;;;;10.47;2.60;;;7.80;99.90;;;;;;4998070;28;20202;-79
2021/03/16 00:45:15;;;;;;;12.03;2.20;;;7.90;99.90;;;;;;5015968;28;20695;-79
2021/03/16 00:47:41;;;;;;;12.23;2.30;;;7.90;99.90;;;;;;5002762;28;20178;-78
2021/03/16 00:50:12;;;;;;;10.70;3.50;;;7.90;99.90;;;;;;4998126;28;20170;-79
2021/03/16 00:52:39;;;;;;;9.15;1.92;;;7.90;99.90;;;;;;4997958;28;20210;-79
2021/03/16 00:55:07;;;;;;;13.02;2.35;;;7.90;99.90;;;;;;4998213;28;20178;-79
2021/03/16 00:57:33;;;;;;;10.77;2.00;;;8.00;99.90;;;;;;5015300;28;20171;-79
2021/03/16 00:59:59;;;;;;;22.33;3.10;;;8.00;99.90;;;;;;5015436;28;20205;-78
2021/03/16 01:02:25;;;;;;;9.10;2.90;;;8.00;99.90;;;;;;5015545;28;20206;-78
2021/03/16 01:04:50;;;;;;;11.90;2.20;;;8.00;99.90;;;;;;5015419;28;20170;-78
2021/03/16 01:07:16;;;;;;;11.30;2.90;;;8.00;99.90;;;;;;5015189;28;20577;-79
2021/03/16 01:09:42;;;;;;;10.63;2.03;;;8.00;99.90;;;;;;5015366;28;20680;-78
2021/03/16 01:12:08;;;;;;;12.37;2.43;;;8.10;99.90;;;;;;4997657;28;20201;-78
2021/03/16 01:14:34;;;;;;;8.55;2.50;;;8.10;99.90;;;;;;4997575;28;20635;-78
2021/03/16 01:17:00;;;;;;;13.47;2.70;;;8.10;99.90;;;;;;5014690;28;20171;-78
2021/03/16 01:19:26;;;;;;;5.88;1.75;;;8.10;99.90;;;;;;5015039;28;20620;-78
2021/03/16 01:21:52;;;;;;;13.13;3.13;;;8.10;99.90;;;;;;5014976;28;20210;-78
2021/03/16 01:24:18;;;;;;;10.53;2.60;;;8.10;99.90;;;;;;5020164;28;20171;-78
2021/03/16 01:26:44;;;;;;;9.93;2.28;;;8.10;99.90;;;;;;4997113;28;20593;-79
2021/03/16 01:29:10;;;;;;;10.23;2.80;;;8.10;99.90;;;;;;4997631;28;20305;-78
2021/03/16 01:31:37;;;;;;;10.77;1.73;;;8.10;99.90;;;;;;5014753;28;20190;-78
2021/03/16 01:34:03;;;;;;;7.45;2.05;;;8.10;99.90;;;;;;5014945;28;20171;-79
2021/03/16 01:36:29;;;;;;;13.38;2.20;;;8.20;99.90;;;;;;5014480;28;20511;-79
2021/03/16 01:38:58;;;;;;;11.67;3.17;;;8.20;99.90;;;;;;5014892;28;20177;-78
2021/03/16 01:41:24;;;;;;;13.93;3.08;;;8.20;99.90;;;;;;5014406;28;20640;-78
2021/03/16 01:43:50;;;;;;;11.77;1.93;;;8.20;99.90;;;;;;5014494;28;20165;-78
2021/03/16 01:46:18;;;;;;;11.20;2.40;;;8.20;99.90;;;;;;5014329;28;20653;-79
2021/03/16 01:48:44;;;;;;;9.13;2.60;;;8.20;99.90;;;;;;4996216;28;20569;-78
2021/03/16 01:51:11;;;;;;;8.25;1.42;;;8.20;99.90;;;;;;4996723;28;20190;-79
2021/03/16 01:53:39;;;;;;;5.03;1.73;;;8.20;99.90;;;;;;5014639;28;20181;-78
2021/03/16 01:56:06;;;;;;;12.93;1.70;;;8.20;99.90;;;;;;5014285;28;20266;-79
2021/03/16 01:58:54;;;;;;;10.30;2.00;;;8.20;99.90;;;;;;5014446;28;20192;-79
2021/03/16 02:01:39;;;;;;;8.80;2.60;;;8.20;99.90;;;;;;5024890;28;20204;-79
2021/03/16 02:04:23;;;;;;;10.30;1.70;;;8.20;99.90;;;;;;5018802;28;20170;-79
2021/03/16 02:07:14;;;;;;;7.50;2.20;;;8.20;99.90;;;;;;5025079;28;20215;-79
2021/03/16 02:10:43;;;;;;;6.10;1.63;;;8.20;99.90;;;;;;5030971;28;20166;-79
2021/03/16 02:13:31;;;;;;;5.30;1.63;;;8.20;99.90;;;;;;4959252;28;20197;-79
2021/03/16 02:16:23;;;;;;;6.82;1.90;;;8.20;99.90;;;;;;5033400;28;20170;-79
2021/03/16 02:19:39;;;;;;;8.70;2.53;;;8.20;99.90;;;;;;5033824;28;20521;-79
2021/03/16 02:22:28;;;;;;;7.72;2.05;;;8.20;99.90;;;;;;5033486;28;20248;-79
2021/03/16 02:25:34;;;;;;;11.00;1.95;;;8.20;99.90;;;;;;5033515;28;20218;-79
2021/03/16 02:28:42;;;;;;;8.95;3.05;;;8.20;99.90;;;;;;5033179;28;20169;-79
2021/03/16 02:31:27;;;;;;;6.47;1.73;;;8.20;99.90;;;;;;5033270;28;20236;-80
2021/03/16 02:34:16;;;;;;;8.18;1.90;;;8.10;99.90;;;;;;5033536;28;20265;-79
2021/03/16 02:37:04;;;;;;;9.80;1.98;;;8.10;99.90;;;;;;5033451;28;20174;-79
2021/03/16 02:39:50;;;;;;;13.32;2.10;;;8.10;99.90;;;;;;5036909;28;20260;-79
2021/03/16 02:42:35;;;;;;;9.98;2.30;;;8.10;99.90;;;;;;5033125;28;20201;-78
2021/03/16 02:45:20;;;;;;;10.48;1.75;;;8.10;99.90;;;;;;5033415;28;20173;-79
2021/03/16 02:48:07;;;;;;;12.63;2.72;;;8.10;99.90;;;;;;5032898;28;20162;-79
2021/03/16 02:50:51;;;;;;;9.57;1.83;;;8.10;99.90;;;;;;5033175;28;20224;-79
2021/03/16 02:53:37;;;;;;;6.88;1.40;;;8.00;99.90;;;;;;5033329;28;20582;-79
2021/03/16 02:56:23;;;;;;;6.35;1.90;;;8.00;99.90;;;;;;5032796;28;20165;-78
2021/03/16 02:59:09;;;;;;;8.80;2.00;;;8.00;99.90;;;;;;5014893;28;20518;-79
2021/03/16 03:01:55;;;;;;;8.32;1.75;;;8.00;99.90;;;;;;5032702;28;20252;-79
2021/03/16 03:04:42;;;;;;;11.27;2.53;;;8.00;99.90;;;;;;5015120;28;20261;-79
2021/03/16 03:07:26;;;;;;;7.60;1.52;;;8.00;99.90;;;;;;5032521;28;20177;-79
2021/03/16 03:10:11;;;;;;;6.72;1.92;;;7.90;99.90;;;;;;5032855;28;20574;-78
2021/03/16 03:12:56;;;;;;;7.47;2.17;;;7.90;99.90;;;;;;5033045;28;20576;-79
2021/03/16 03:15:41;;;;;;;6.68;2.13;;;7.90;99.90;;;;;;5022725;28;20174;-78
2021/03/16 03:18:25;;;;;;;11.93;2.08;;;7.90;99.90;;;;;;5017647;28;20170;-78
2021/03/16 03:21:15;;;;;;;7.50;1.40;;;7.90;99.90;;;;;;5032457;28;20209;-79
2021/03/16 03:24:09;;;;;;;10.40;1.33;;;7.90;99.90;;;;;;5032682;28;20182;-79
2021/03/16 03:27:07;;;;;;;10.65;2.05;;;7.90;99.90;;;;;;5032155;28;20158;-78
2021/03/16 03:29:53;;;;;;;12.32;1.92;;;7.90;99.90;;;;;;5032763;28;20202;-78
2021/03/16 03:32:39;;;;;;;12.00;2.28;;;7.90;99.90;;;;;;5032576;28;20582;-78
2021/03/16 03:35:23;;;;;;;9.57;1.60;;;7.80;99.90;;;;;;5032317;28;20162;-78
2021/03/16 03:38:09;;;;;;;7.80;1.40;;;7.80;99.90;;;;;;5031931;28;20173;-78
2021/03/16 03:40:54;;;;;;;6.97;2.38;;;7.80;99.90;;;;;;5031849;28;20728;-78
2021/03/16 03:43:40;;;;;;;8.27;1.63;;;7.90;99.90;;;;;;5041104;23;20229;-80
2021/03/16 03:46:26;;;;;;;7.28;1.75;;;7.90;99.90;;;;;;4997292;28;20583;-80
2021/03/16 03:49:12;;;;;;;4.85;1.70;;;7.90;99.90;;;;;;5012866;28;20181;-80
2021/03/16 03:51:57;;;;;;;10.40;1.63;;;7.90;99.90;;;;;;5012252;28;20642;-79
2021/03/16 03:54:45;;;;;;;9.30;1.45;;;7.90;99.90;;;;;;5012974;28;20196;-81
2021/03/16 03:57:30;;;;;;;6.85;1.80;;;7.90;99.90;;;;;;5016739;28;20180;-80
2021/03/16 04:00:15;;;;;;;7.38;1.80;;;7.90;99.90;;;;;;5011402;28;20245;-80
2021/03/16 04:03:04;;;;;;;7.40;1.90;;;7.90;99.90;;;;;;5013778;28;20639;-81
2021/03/16 04:06:03;;;;;;;7.72;2.08;;;7.90;99.90;;;;;;5007195;28;20243;-81
2021/03/16 04:08:50;;;;;;;5.97;1.70;;;7.90;99.90;;;;;;5033377;28;20162;-81
2021/03/16 04:11:55;;;;;;;9.20;2.03;;;8.00;99.90;;;;;;5017456;28;20213;-81
2021/03/16 04:14:44;;;;;;;10.23;1.98;;;8.00;99.90;;;;;;5032299;28;20213;-80
2021/03/16 04:17:28;;;;;;;9.55;1.67;;;8.00;99.90;;;;;;5032402;28;20188;-80
2021/03/16 04:20:14;;;;;;;9.77;2.20;;;8.00;99.90;;;;;;5032905;28;20681;-80
2021/03/16 04:22:59;;;;;;;7.32;2.22;;;8.00;99.90;;;;;;5032345;28;20584;-80
2021/03/16 04:25:43;;;;;;;5.82;1.52;;;8.10;99.90;;;;;;5014319;28;20189;-80
2021/03/16 04:28:28;;;;;;;10.25;2.33;;;8.10;99.90;;;;;;5017179;28;20525;-80
2021/03/16 04:31:15;;;;;;;8.18;1.25;;;8.10;99.90;;;;;;5033609;28;20169;-80
2021/03/16 04:33:59;;;;;;;5.57;1.83;;;8.10;99.90;;;;;;5032292;28;20200;-80
2021/03/16 04:36:44;;;;;;;5.28;1.23;;;8.10;99.90;;;;;;5032919;28;20193;-81
2021/03/16 04:39:28;;;;;;;9.90;1.60;;;8.10;99.90;;;;;;5018458;28;20173;-81
2021/03/16 04:42:12;;;;;;;8.98;1.70;;;8.10;99.90;;;;;;4999956;28;20241;-80
2021/03/16 04:44:56;;;;;;;4.13;1.50;;;8.10;99.90;;;;;;5031549;28;20622;-81
2021/03/16 04:47:41;;;;;;;7.30;1.38;;;8.20;99.90;;;;;;5031212;28;20161;-80
2021/03/16 04:50:25;;;;;;;6.15;1.38;;;8.10;99.90;;;;;;5031629;28;20281;-80
2021/03/16 04:53:10;;;;;;;7.65;1.38;;;8.10;99.90;;;;;;5031638;28;20196;-80
2021/03/16 04:55:54;;;;;;;6.63;1.27;;;8.20;99.90;;;;;;5014026;28;20264;-80
2021/03/16 04:58:38;;;;;;;6.88;1.50;;;8.10;99.90;;;;;;5031229;28;20556;-80
2021/03/16 05:01:23;;;;;;;5.65;1.55;;;8.20;99.90;;;;;;5032078;28;20684;-81
2021/03/16 05:04:07;;;;;;;4.20;1.30;;;8.20;99.90;;;;;;5013615;28;20189;-81
2021/03/16 05:06:51;;;;;;;5.35;1.20;;;8.20;99.90;;;;;;5013184;28;20249;-80
2021/03/16 05:09:36;;;;;;;7.72;1.40;;;8.10;99.90;;;;;;5031322;28;20161;-80
2021/03/16 05:12:20;;;;;;;13.13;2.15;;;8.20;99.90;;;;;;5014104;28;20264;-81
2021/03/16 05:15:07;;;;;;;6.63;1.95;;;8.20;99.90;;;;;;5036795;28;20165;-80
2021/03/16 05:17:51;;;;;;;10.23;1.95;;;8.20;99.90;;;;;;5030881;28;20166;-80
2021/03/16 05:20:35;;;;;;;10.40;2.65;;;8.20;99.90;;;;;;5031166;28;20205;-80
2021/03/16 05:23:22;;;;;;;6.60;1.98;;;8.20;99.90;;;;;;5031987;28;20200;-79
2021/03/16 05:26:07;;;;;;;5.38;2.15;;;8.20;99.90;;;;;;5016978;28;20652;-82
2021/03/16 05:28:51;;;;;;;6.13;1.73;;;8.20;99.90;;;;;;5034717;28;20181;-81
2021/03/16 05:31:39;;;;;;;4.63;1.70;;;8.20;99.90;;;;;;5034461;28;20709;-81
2021/03/16 05:34:23;;;;;;;7.13;2.35;;;8.20;99.90;;;;;;5016602;28;20739;-81
2021/03/16 05:37:07;;;;;;;8.45;1.48;;;8.20;99.90;;;;;;5033990;28;20192;-81
2021/03/16 05:39:51;;;;;;;9.38;2.05;;;8.20;99.90;;;;;;5016777;28;20174;-81
2021/03/16 05:42:36;;;;;;;8.20;1.70;;;8.20;99.90;;;;;;5034381;28;20182;-79
2021/03/16 05:45:24;;;;;;;9.35;1.80;;;8.20;99.90;;;;;;5034394;28;20166;-80
2021/03/16 05:48:10;;;;;;;16.10;3.00;;;8.20;99.90;;;;;;5019028;28;20591;-81
2021/03/16 05:50:55;;;;;;;12.10;2.60;;;8.20;99.90;;;;;;5035229;28;20663;-80
2021/03/16 05:53:39;;;;;;;7.10;1.58;;;8.20;99.90;;;;;;5034748;28;20185;-80
2021/03/16 05:56:24;;;;;;;10.10;1.95;;;8.20;99.90;;;;;;5034535;28;20217;-80
2021/03/16 05:59:09;;;;;;;8.20;1.50;;;8.20;99.90;;;;;;5034865;28;20154;-79
2021/03/16 06:01:53;;;;;;;13.85;2.30;;;8.20;99.90;;;;;;5019732;28;20277;-79
2021/03/16 06:04:41;;;;;;;6.40;1.95;;;8.30;99.90;;;;;;5019198;28;20177;-80
2021/03/16 06:07:26;;;;;;;7.82;2.13;;;8.30;99.90;;;;;;5035336;28;20174;-79
2021/03/16 06:10:13;;;;;;;6.97;1.40;;;8.30;99.90;;;;;;5035427;28;20169;-81
2021/03/16 06:13:09;;;;;;;7.00;1.60;;;8.30;99.90;;;;;;5035406;28;20752;-79
2021/03/16 06:16:14;;;;;;;8.13;1.50;;;8.30;99.90;;;;;;5035281;28;20986;-79
2021/03/16 06:19:07;;;;;;;10.25;1.85;;;8.30;99.90;;;;;;5036221;28;20181;-80
2021/03/16 06:22:06;;;;;;;6.85;1.48;;;8.30;99.90;;;;;;5019769;28;20197;-80
2021/03/16 06:24:56;;;;;;;12.15;1.67;;;8.40;99.90;;;;;;5017166;28;20169;-80
2021/03/16 06:27:44;;;;;;;9.15;1.98;;;8.40;99.90;;;;;;5017921;28;20217;-80
2021/03/16 06:30:29;;;;;;;7.50;2.20;;;8.40;99.90;;;;;;5024316;28;20213;-80
2021/03/16 06:33:20;;;;;;;7.40;2.15;;;8.40;99.90;;;;;;5043778;28;20185;-80
2021/03/16 06:36:09;;;;;;;11.25;2.10;;;8.40;99.90;;;;;;5049690;28;20205;-80
2021/03/16 06:38:54;;;;;;;7.25;1.83;;;8.50;99.90;;;;;;5057014;28;20180;-81
2021/03/16 06:41:41;;;;;;;5.53;1.30;;;8.50;99.90;;;;;;5043037;28;20205;-79
2021/03/16 06:44:25;;;;;;;8.48;1.40;;;8.50;99.90;;;;;;5053479;28;20197;-80
2021/03/16 06:47:14;;;;;;;9.65;1.92;;;8.60;99.90;;;;;;5045522;28;20165;-79
2021/03/16 06:50:00;;;;;;;8.43;1.60;;;8.60;99.90;;;;;;5048048;28;20202;-80
2021/03/16 06:52:53;;;;;;;10.20;2.00;;;8.70;99.90;;;;;;5018908;28;20202;-80
2021/03/16 06:55:37;;;;;;;4.50;1.27;;;8.70;99.90;;;;;;5014073;28;20170;-78
2021/03/16 06:58:24;;;;;;;11.40;1.70;;;8.80;99.90;;;;;;5020324;28;20174;-77
2021/03/16 07:01:13;;;;;;;11.48;2.35;;;8.80;99.90;;;;;;5017719;28;20190;-79
2021/03/16 07:03:59;;;;;;;5.97;1.40;;;8.90;99.90;;;;;;5018480;28;20202;-77
2021/03/16 07:06:43;;;;;;;10.45;1.80;;;8.90;99.90;;;;;;5009555;28;20189;-78
2021/03/16 07:09:31;;;;;;;6.70;1.70;;;9.00;99.90;;;;;;5023129;28;20167;-79
2021/03/16 07:12:17;;;;;;;10.80;2.35;;;9.00;99.90;;;;;;4999337;28;20233;-79
2021/03/16 07:15:05;;;;;;;8.07;2.25;;;9.10;99.90;;;;;;5009318;28;20317;-79
2021/03/16 07:17:51;;;;;;;5.20;1.25;;;9.10;99.90;;;;;;4991722;28;20201;-78
2021/03/16 07:20:36;;;;;;;6.03;1.95;;;9.20;99.90;;;;;;5011627;28;20203;-78
2021/03/16 07:23:24;;;;;;;8.50;1.85;;;9.20;99.90;;;;;;5001072;28;20198;-78
2021/03/16 07:26:11;;;;;;;7.78;1.73;;;9.30;99.90;;;;;;4967435;28;20709;-80
2021/03/16 07:28:56;;;;;;;6.68;1.80;;;9.30;99.90;;;;;;5007886;28;20705;-79
2021/03/16 07:31:43;;;;;;;6.35;1.48;;;9.40;99.90;;;;;;5010440;28;20185;-79
2021/03/16 07:34:31;;;;;;;4.15;1.70;;;9.50;99.90;;;;;;4994685;28;20897;-79
2021/03/16 07:37:18;;;;;;;8.35;1.75;;;9.60;99.90;;;;;;4980968;28;20635;-79
2021/03/16 07:40:08;;;;;;;9.35;1.40;;;9.80;99.90;;;;;;5001296;28;20179;-79
2021/03/16 07:42:55;;;;;;;9.85;3.28;;;9.90;99.90;;;;;;4983399;28;20270;-78
2021/03/16 07:45:40;;;;;;;11.88;1.83;;;10.00;99.90;;;;;;5008609;28;20206;-79
2021/03/16 07:48:32;;;;;;;5.63;1.45;;;10.10;99.90;;;;;;4989977;28;20738;-78
2021/03/16 07:51:22;;;;;;;7.70;1.15;;;10.30;99.90;;;;;;4995570;28;20175;-78
2021/03/16 07:54:08;;;;;;;5.97;1.55;;;10.40;99.90;;;;;;5007657;28;20686;-78
2021/03/16 07:57:00;;;;;;;5.35;2.30;;;10.60;99.90;;;;;;5009517;28;20175;-78
2021/03/16 07:59:56;;;;;;;6.25;1.70;;;10.70;99.90;;;;;;5011852;28;20194;-79
2021/03/16 08:02:56;;;;;;;6.85;2.20;;;10.80;99.90;;;;;;5009207;28;20187;-78
2021/03/16 08:05:46;;;;;;;8.30;2.08;;;10.90;99.90;;;;;;5010144;28;20183;-79
2021/03/16 08:08:42;;;;;;;7.28;1.65;;;11.10;99.90;;;;;;5013098;28;20171;-80
2021/03/16 08:11:41;;;;;;;7.60;1.92;;;11.20;99.90;;;;;;5012114;28;20170;-78
2021/03/16 08:14:30;;;;;;;6.95;2.30;;;11.20;99.90;;;;;;4995846;28;20270;-78
2021/03/16 08:17:28;;;;;;;6.75;1.35;;;11.30;99.90;;;;;;5010742;28;20163;-79
2021/03/16 08:20:24;;;;;;;5.30;1.15;;;11.40;99.90;;;;;;5009762;28;20182;-79
2021/03/16 08:23:11;;;;;;;8.73;2.28;;;11.60;99.90;;;;;;4995950;28;20734;-78
2021/03/16 08:25:57;;;;;;;6.20;1.80;;;11.80;99.90;;;;;;5005290;28;20159;-77
2021/03/16 08:28:47;;;;;;;5.63;1.50;;;11.90;99.90;;;;;;4999850;28;20154;-78
2021/03/16 08:31:34;;;;;;;4.63;1.65;;;12.10;99.90;;;;;;4985471;28;20167;-78
2021/03/16 08:34:21;;;;;;;8.73;1.40;;;12.10;99.90;;;;;;5001190;28;20246;-79
2021/03/16 08:37:06;;;;;;;4.68;1.50;;;12.10;99.90;;;;;;4997739;28;20226;-78
2021/03/16 08:39:51;;;;;;;4.75;1.30;;;12.10;99.90;;;;;;5005806;28;20159;-77
2021/03/16 08:42:36;;;;;;;5.93;2.30;;;12.40;99.90;;;;;;5010584;28;20186;-78
2021/03/16 08:45:31;;;;;;;6.30;1.67;;;12.80;99.90;;;;;;5010396;28;20773;-78
2021/03/16 08:48:29;;;;;;;5.18;1.90;;;13.10;99.90;;;;;;5003624;28;20198;-79
2021/03/16 08:51:24;;;;;;;3.70;1.40;;;13.50;99.90;;;;;;4988733;28;20214;-77
2021/03/16 08:57:18;;;;;;;7.68;1.75;;;13.70;99.90;;;;;;4998616;28;20163;-78
2021/03/16 09:00:07;;;;;;;4.78;1.42;;;13.80;99.90;;;;;;4999943;28;20167;-78
2021/03/16 09:02:52;;;;;;;8.95;1.63;;;13.60;99.90;;;;;;4986044;28;20186;-78
2021/03/16 09:05:37;;;;;;;5.13;1.35;;;13.50;99.90;;;;;;4997622;28;20174;-78
2021/03/16 09:08:22;;;;;;;4.22;1.80;;;13.50;99.90;;;;;;5003412;28;20633;-78
2021/03/16 09:11:09;;;;;;;4.18;1.27;;;13.60;99.90;;;;;;5001105;28;20171;-78
2021/03/16 09:14:04;;;;;;;5.00;1.45;;;13.80;99.90;;;;;;4997853;28;20191;-78
2021/03/16 09:16:51;;;;;;;5.03;1.43;;;14.10;99.90;;;;;;4982567;28;20175;-77
2021/03/16 09:19:36;;;;;;;5.90;1.40;;;14.60;99.90;;;;;;4983061;28;20725;-79
2021/03/16 09:22:21;;;;;;;4.00;1.57;;;15.10;99.90;;;;;;4986297;28;20622;-78
2021/03/16 09:25:12;;;;;;;4.93;1.10;;;15.40;99.90;;;;;;5013379;28;20578;-78
2021/03/16 09:28:00;;;;;;;5.77;1.07;;;15.40;99.90;;;;;;5013755;28;20737;-79
2021/03/16 09:30:52;;;;;;;6.00;1.50;;;15.30;99.90;;;;;;4995611;28;20661;-79
2021/03/16 09:33:37;;;;;;;8.57;1.30;;;15.30;99.90;;;;;;5000007;28;20203;-78
2021/03/16 09:36:29;;;;;;;5.40;1.20;;;15.40;99.90;;;;;;5000084;28;20665;-78
2021/03/16 09:39:21;;;;;;;8.07;1.77;;;15.30;99.90;;;;;;5000213;28;20933;-78
2021/03/16 09:42:00;;;;;;;4.28;1.35;;;15.20;99.90;;;;;;4998411;28;20609;-77
2021/03/16 09:44:33;;;;;;;10.53;1.60;;;15.00;99.90;;;;;;4977984;28;20262;-76
2021/03/16 09:47:00;;;;;;;7.30;1.17;;;14.90;99.90;;;;;;4993967;28;20584;-75
2021/03/16 09:49:28;;;;;;;6.23;2.00;;;15.40;99.90;;;;;;4993167;28;20644;-75
2021/03/16 09:51:54;;;;;;;7.27;1.93;;;16.00;99.90;;;;;;4994579;28;20710;-76
2021/03/16 09:54:20;;;;;;;4.50;1.93;;;16.40;99.90;;;;;;4994473;28;20685;-73
2021/03/16 09:56:51;;;;;;;4.90;1.30;;;16.90;99.90;;;;;;4992732;28;20570;-75
2021/03/16 09:59:16;;;;;;;2.80;1.73;;;17.50;99.90;;;;;;4979985;28;20174;-75
2021/03/16 10:01:44;;;;;;;3.97;1.30;;;18.00;99.90;;;;;;5013938;28;20565;-75
2021/03/16 10:04:13;;;;;;;5.07;1.80;;;18.20;99.90;;;;;;5013725;28;20190;-75
2021/03/16 10:06:44;;;;;;;13.47;1.90;;;18.20;99.90;;;;;;4995515;28;20656;-75
2021/03/16 10:09:21;;;;;;;3.43;1.00;;;18.00;99.90;;;;;;5013696;28;20596;-75
2021/03/16 10:11:48;;;;;;;4.50;1.40;;;17.80;99.90;;;;;;4996303;28;20654;-74
2021/03/16 10:14:27;;;;;;;8.87;1.70;;;17.60;99.90;;;;;;5013541;28;20692;-75
2021/03/16 10:16:54;;;;;;;5.63;1.50;;;17.40;99.90;;;;;;4995806;28;20619;-74
2021/03/16 10:19:21;;;;;;;7.10;1.07;;;17.10;99.90;;;;;;4996076;28;20603;-75
2021/03/16 10:21:47;;;;;;;4.80;1.40;;;16.80;99.90;;;;;;5013558;28;20942;-74
2021/03/16 10:24:13;;;;;;;8.13;2.00;;;16.60;99.90;;;;;;5013425;28;20821;-74
2021/03/16 10:26:39;;;;;;;8.70;1.73;;;16.40;99.90;;;;;;5013469;28;21088;-75
2021/03/16 10:29:12;;;;;;;7.20;2.23;;;16.20;99.90;;;;;;5013523;28;20573;-73
2021/03/16 10:31:38;;;;;;;5.13;1.50;;;16.00;99.90;;;;;;4995784;28;20666;-74
2021/03/16 10:34:06;;;;;;;6.10;2.23;;;15.90;99.90;;;;;;4995684;28;20608;-74
2021/03/16 10:36:35;;;;;;;4.33;1.40;;;15.60;99.90;;;;;;5013084;28;20601;-75
2021/03/16 10:39:03;;;;;;;4.53;1.40;;;15.50;99.90;;;;;;5013379;28;20582;-75
2021/03/16 10:41:28;;;;;;;5.20;2.33;;;15.30;99.90;;;;;;5017193;28;20588;-75
2021/03/16 10:43:54;;;;;;;4.80;1.70;;;15.30;99.90;;;;;;5016609;28;20772;-75
2021/03/16 10:46:20;;;;;;;5.40;2.50;;;15.40;99.90;;;;;;4996116;28;20253;-75
2021/03/16 10:48:45;;;;;;;5.93;1.70;;;15.60;99.90;;;;;;5012994;28;20163;-74
2021/03/16 10:51:11;;;;;;;6.83;2.73;;;15.90;99.90;;;;;;4995384;28;20256;-75
2021/03/16 10:53:37;;;;;;;3.83;1.43;;;16.10;99.90;;;;;;5013001;28;20190;-75
2021/03/16 10:56:06;;;;;;;5.30;1.60;;;16.20;99.90;;;;;;5012978;28;20976;-75
2021/03/16 10:58:32;;;;;;;7.10;2.67;;;16.20;99.90;;;;;;5012642;28;20232;-75
2021/03/16 11:00:59;;;;;;;8.60;2.33;;;16.10;99.90;;;;;;5012786;28;20603;-74
2021/03/16 11:03:25;;;;;;;9.20;3.20;;;16.00;99.90;;;;;;5012614;28;20593;-75
2021/03/16 11:05:50;;;;;;;5.83;1.63;;;16.00;99.90;;;;;;4995391;28;20588;-78
2021/03/16 11:08:16;;;;;;;5.03;1.90;;;15.90;99.90;;;;;;5024464;28;20592;-75
2021/03/16 11:10:42;;;;;;;7.67;2.57;;;15.80;99.90;;;;;;5013660;28;20656;-78
2021/03/16 11:13:08;;;;;;;7.03;1.83;;;15.70;99.90;;;;;;4993261;28;20212;-75
2021/03/16 11:15:35;;;;;;;4.80;2.30;;;15.60;99.90;;;;;;5005099;28;20598;-76
2021/03/16 11:18:00;;;;;;;9.63;2.80;;;15.60;99.90;;;;;;4975140;28;20988;-76
2021/03/16 11:20:26;;;;;;;5.53;2.03;;;15.60;99.90;;;;;;4992209;28;20610;-75
2021/03/16 11:22:52;;;;;;;5.27;2.60;;;15.80;99.90;;;;;;4992643;28;20697;-76
2021/03/16 11:25:18;;;;;;;8.50;2.17;;;16.10;99.90;;;;;;4979786;28;20668;-75
2021/03/16 11:27:44;;;;;;;5.90;2.97;;;16.30;99.90;;;;;;4975306;28;20189;-75
2021/03/16 11:30:11;;;;;;;8.03;4.97;;;16.30;99.90;;;;;;4975235;28;20616;-75
2021/03/16 11:32:37;;;;;;;13.17;4.47;;;16.40;99.90;;;;;;4992334;28;20585;-75
2021/03/16 11:35:22;;;;;;;13.47;5.50;;;16.30;99.90;;;;;;4992817;28;20569;-74
2021/03/16 11:38:06;;;;;;;9.32;4.70;;;16.20;99.90;;;;;;4992414;28;20566;-76
2021/03/16 11:40:52;;;;;;;7.70;4.60;;;15.90;99.90;;;;;;4992583;28;20175;-74
2021/03/16 11:43:36;;;;;;;4.70;2.08;;;15.60;99.90;;;;;;4992424;28;20649;-74
2021/03/16 11:46:20;;;;;;;3.60;1.38;;;15.20;99.90;;;;;;4992485;28;20171;-77
2021/03/16 11:49:04;;;;;;;4.05;1.30;;;14.80;99.80;;;;;;4977830;28;20179;-74
2021/03/16 11:51:49;;;;;;;3.33;1.17;;;14.50;99.90;;;;;;4992527;28;20226;-75
2021/03/16 11:54:36;;;;;;;3.10;1.10;;;14.10;99.90;;;;;;4992261;28;20200;-75
2021/03/16 11:57:21;;;;;;;5.05;1.10;;;13.80;99.90;;;;;;4977528;28;20198;-76
2021/03/16 12:00:09;;;;;;;5.25;1.17;;;13.50;99.90;;;;;;4995049;28;20178;-75
2021/03/16 12:02:53;;;;;;;3.50;1.10;;;13.20;99.90;;;;;;4977723;28;20660;-75
2021/03/16 12:05:38;;;;;;;2.97;0.98;;;13.00;99.90;;;;;;4974943;28;20190;-75
2021/03/16 12:08:22;;;;;;;4.35;1.30;;;12.80;99.90;;;;;;4991715;28;20656;-76
2021/03/16 12:11:10;;;;;;;1.67;1.00;;;12.70;99.90;;;;;;4977548;28;20342;-76
2021/03/16 12:13:55;;;;;;;3.78;1.20;;;12.80;99.90;;;;;;4992092;28;20190;-74
2021/03/16 12:16:39;;;;;;;5.13;1.10;;;13.00;99.90;;;;;;4977234;28;20178;-73
2021/03/16 12:19:24;;;;;;;5.80;1.50;;;13.30;99.90;;;;;;4992095;28;20171;-75
2021/03/16 12:22:09;;;;;;;3.25;1.65;;;13.60;99.90;;;;;;4992124;28;20170;-75
2021/03/16 12:24:54;;;;;;;7.15;1.42;;;13.90;99.90;;;;;;4977233;28;20175;-74
2021/03/16 12:27:38;;;;;;;5.70;1.45;;;14.00;99.90;;;;;;4991647;28;20228;-74
2021/03/16 12:30:23;;;;;;;3.70;1.33;;;14.10;99.90;;;;;;4977025;28;20170;-75
2021/03/16 12:33:10;;;;;;;5.87;1.70;;;14.20;99.90;;;;;;4994106;28;20643;-73
2021/03/16 12:35:55;;;;;;;4.75;1.15;;;14.20;99.90;;;;;;4996744;28;20649;-75
2021/03/16 12:38:39;;;;;;;2.63;1.00;;;14.20;99.90;;;;;;4995893;28;20575;-76
2021/03/16 12:41:23;;;;;;;4.20;1.27;;;14.20;99.90;;;;;;4999192;28;20679;-76
2021/03/16 12:44:08;;;;;;;3.47;1.30;;;14.10;99.90;;;;;;4999876;28;20240;-75
2021/03/16 12:46:52;;;;;;;2.60;1.08;;;14.10;99.90;;;;;;4969562;28;20175;-75
2021/03/16 12:49:37;;;;;;;2.75;0.90;;;14.10;99.90;;;;;;5002007;28;20878;-75
2021/03/16 12:52:21;;;;;;;4.47;1.30;;;14.00;99.90;;;;;;4988297;28;20198;-75
2021/03/16 12:55:06;;;;;;;6.20;2.15;;;14.00;99.90;;;;;;5004607;28;20207;-75
2021/03/16 12:57:50;;;;;;;5.30;2.15;;;13.70;99.90;;;;;;4988803;28;20600;-74
2021/03/16 13:00:34;;;;;;;5.13;1.63;;;13.40;99.90;;;;;;5000696;28;20179;-74
2021/03/16 13:03:18;;;;;;;5.93;1.73;;;13.00;99.90;;;;;;4996477;28;20190;-75
2021/03/16 13:06:03;;;;;;;5.85;1.80;;;12.70;99.90;;;;;;4983207;28;20197;-74
2021/03/16 13:08:49;;;;;;;4.38;1.80;;;12.50;99.90;;;;;;5015187;28;20170;-74
2021/03/16 13:11:36;;;;;;;6.97;2.25;;;12.30;99.90;;;;;;5001083;28;20567;-76
2021/03/16 13:14:23;;;;;;;5.90;1.30;;;12.10;99.90;;;;;;4987041;28;20198;-75
2021/03/16 13:17:13;;;;;;;3.13;1.92;;;12.00;99.90;;;;;;5014602;28;20253;-75
2021/03/16 13:19:57;;;;;;;4.72;1.80;;;11.90;99.90;;;;;;4997060;28;20174;-75
2021/03/16 13:22:42;;;;;;;2.63;1.40;;;12.00;99.90;;;;;;5014400;28;20175;-74
2021/03/16 13:25:32;;;;;;;2.47;1.38;;;12.00;99.90;;;;;;4996837;28;20637;-75
2021/03/16 13:28:16;;;;;;;4.88;1.75;;;12.10;99.90;;;;;;5014313;28;20216;-76
2021/03/16 13:31:00;;;;;;;4.50;1.70;;;12.20;99.90;;;;;;5014223;28;20709;-75
2021/03/16 13:33:45;;;;;;;8.70;2.30;;;12.30;99.90;;;;;;5014564;28;20183;-74
2021/03/16 13:36:29;;;;;;;6.72;2.72;;;12.40;99.90;;;;;;5013868;28;21119;-76
2021/03/16 13:39:13;;;;;;;4.97;2.55;;;12.40;99.90;;;;;;5009123;28;20632;-77
2021/03/16 13:41:58;;;;;;;7.78;3.38;;;12.40;99.90;;;;;;5002715;28;20535;-76
2021/03/16 13:44:42;;;;;;;6.00;2.10;;;12.40;99.90;;;;;;5015477;28;20213;-77
2021/03/16 13:47:26;;;;;;;5.68;1.95;;;12.40;99.90;;;;;;5033698;28;20502;-76
2021/03/16 13:50:11;;;;;;;8.23;2.75;;;12.40;99.90;;;;;;5018781;28;20173;-76
2021/03/16 13:52:56;;;;;;;7.55;4.55;;;12.30;99.90;;;;;;5033666;28;20194;-78
2021/03/16 13:55:40;;;;;;;4.60;2.22;;;12.30;99.90;;;;;;5018644;28;20685;-75
2021/03/16 13:58:25;;;;;;;7.68;2.30;;;12.20;99.90;;;;;;5006376;28;20220;-75
2021/03/16 14:01:09;;;;;;;5.72;3.05;;;12.10;99.90;;;;;;4999309;28;20178;-75
2021/03/16 14:03:53;;;;;;;2.20;1.30;;;12.10;99.90;;;;;;5014293;28;20232;-75
2021/03/16 14:06:45;;;;;;;2.03;1.30;;;12.20;99.90;;;;;;5013701;28;20266;-75